Time;durP1;ratioP1;P1;durP2;ratioP2;P2;SDS_P1;SDS_P2;PMS_P1;PMS_P2;Temp;Humidity;BMP_temperature;BMP_pressure;BME280_temperature;BME280_humidity;BME280_pressure;Samples;Min_cycle;Max_cycle;Signal;HPM_P1;HPM_P2
2022/07/02 00:00:35;;;;;;;2.70;1.92;;;;;;;26.37;40.00;101024.66;5035865;28;20049;-76
2022/07/02 00:03:05;;;;;;;4.68;2.05;;;;;;;26.37;40.45;101033.66;5035810;28;20516;-76
2022/07/02 00:05:55;;;;;;;5.43;2.17;;;;;;;26.39;40.41;101038.91;5036100;28;20097;-76
2022/07/02 00:08:24;;;;;;;3.28;1.95;;;;;;;26.41;40.70;101045.00;5036113;28;20060;-76
2022/07/02 00:10:53;;;;;;;4.18;2.03;;;;;;;26.42;40.56;101041.28;5035833;28;20050;-77
2022/07/02 00:13:23;;;;;;;5.07;2.05;;;;;;;26.44;40.67;101041.09;5051558;28;20080;-76
2022/07/02 00:15:51;;;;;;;3.38;1.80;;;;;;;26.45;40.86;101043.66;5046102;28;20049;-77
2022/07/02 00:18:20;;;;;;;3.33;2.00;;;;;;;26.46;40.81;101042.66;5051350;28;20049;-76
2022/07/02 00:20:48;;;;;;;3.70;1.90;;;;;;;26.46;40.89;101042.66;5041077;28;20037;-76
2022/07/02 00:23:15;;;;;;;3.25;1.85;;;;;;;26.47;40.68;101047.06;5055074;28;20048;-76
2022/07/02 00:25:47;;;;;;;4.50;2.20;;;;;;;26.49;40.75;101039.56;5055227;28;20602;-76
2022/07/02 00:28:16;;;;;;;3.20;2.00;;;;;;;26.50;41.17;101043.16;5054289;28;20052;-76
2022/07/02 00:30:46;;;;;;;3.17;1.88;;;;;;;26.50;40.97;101041.28;5053680;28;20052;-75
2022/07/02 00:33:15;;;;;;;2.80;2.00;;;;;;;26.51;41.04;101045.69;5054965;28;20056;-75
2022/07/02 00:35:44;;;;;;;3.05;1.90;;;;;;;26.53;40.89;101031.94;5054214;28;20057;-74
2022/07/02 00:38:11;;;;;;;3.65;2.10;;;;;;;26.53;41.25;101046.34;5053565;28;20045;-74
2022/07/02 00:40:40;;;;;;;4.32;2.17;;;;;;;26.54;41.14;101050.78;5054781;28;20045;-75
2022/07/02 00:43:08;;;;;;;4.15;2.35;;;;;;;26.55;41.05;101048.91;5051479;28;20396;-74
2022/07/02 00:45:37;;;;;;;3.75;1.95;;;;;;;26.54;41.43;101058.94;5054653;28;20377;-74
2022/07/02 00:48:05;;;;;;;3.70;1.98;;;;;;;26.56;41.44;101062.31;5053760;28;20045;-74
2022/07/02 00:50:33;;;;;;;4.82;2.00;;;;;;;26.57;41.13;101063.16;5053268;28;20119;-74
2022/07/02 00:53:00;;;;;;;3.25;2.33;;;;;;;26.57;41.57;101065.84;5054532;28;20041;-75
2022/07/02 00:55:28;;;;;;;3.58;2.28;;;;;;;26.58;41.43;101068.44;5054951;28;20112;-75
2022/07/02 00:57:56;;;;;;;2.72;1.73;;;;;;;26.59;41.46;101064.69;5054845;28;20060;-74
2022/07/02 01:00:23;;;;;;;3.95;2.20;;;;;;;26.60;41.61;101062.81;5054618;28;20056;-74
2022/07/02 01:02:55;;;;;;;5.13;2.20;;;;;;;26.59;41.53;101061.97;5054315;28;20041;-75
2022/07/02 01:05:22;;;;;;;2.43;1.60;;;;;;;26.61;41.74;101059.06;5054797;28;20070;-75
2022/07/02 01:10:43;;;;;;;3.90;2.00;;;;;;;26.62;41.39;101066.22;5053856;28;20041;-75
2022/07/02 01:13:12;;;;;;;3.28;1.80;;;;;;;26.63;41.79;101065.19;5053282;28;20053;-74
2022/07/02 01:15:40;;;;;;;4.03;2.08;;;;;;;26.63;41.50;101055.16;5054527;28;20489;-74
2022/07/02 01:18:08;;;;;;;2.90;1.80;;;;;;;26.64;41.56;101058.72;5054211;28;20400;-74
2022/07/02 01:20:35;;;;;;;3.47;1.98;;;;;;;26.65;41.68;101067.72;5053782;28;20048;-75
2022/07/02 01:23:03;;;;;;;3.42;1.70;;;;;;;26.66;41.86;101066.69;5054285;28;20053;-74
2022/07/02 01:25:31;;;;;;;3.47;1.98;;;;;;;26.66;41.64;101072.09;5053962;28;20060;-74
2022/07/02 01:27:58;;;;;;;2.80;1.75;;;;;;;26.66;41.83;101078.41;5054375;28;20040;-74
2022/07/02 01:30:26;;;;;;;3.45;1.98;;;;;;;26.67;41.75;101065.69;5054049;28;20052;-75
2022/07/02 01:32:53;;;;;;;3.40;1.88;;;;;;;26.68;41.93;101070.09;5036250;28;20057;-74
2022/07/02 01:35:21;;;;;;;4.30;1.98;;;;;;;26.67;41.90;101069.25;5054189;28;20045;-74
2022/07/02 01:37:52;;;;;;;4.70;2.20;;;;;;;26.69;42.00;101078.03;5052696;28;20056;-74
2022/07/02 01:40:20;;;;;;;3.87;1.83;;;;;;;26.70;41.83;101084.31;5053764;28;20049;-75
2022/07/02 01:42:47;;;;;;;4.05;2.00;;;;;;;26.69;42.11;101083.47;5049757;28;20038;-75
2022/07/02 01:45:14;;;;;;;2.85;1.60;;;;;;;26.70;42.11;101092.47;5033119;28;20052;-74
2022/07/02 01:47:42;;;;;;;4.03;2.17;;;;;;;26.69;42.04;101078.03;5049015;28;20049;-74
2022/07/02 01:50:09;;;;;;;3.50;1.80;;;;;;;26.71;41.98;101086.03;5033560;28;20049;-74
2022/07/02 01:52:37;;;;;;;2.55;1.90;;;;;;;26.71;42.21;101083.31;5033812;28;20037;-75
2022/07/02 01:55:05;;;;;;;3.78;2.17;;;;;;;26.73;42.22;101092.13;5033612;28;20493;-75
2022/07/02 01:57:35;;;;;;;2.95;2.25;;;;;;;26.72;42.10;101090.44;5033654;28;20049;-75
2022/07/02 02:00:08;;;;;;;4.82;2.10;;;;;;;26.73;42.04;101097.56;5033810;28;20382;-75
2022/07/02 02:02:36;;;;;;;3.30;2.03;;;;;;;26.73;42.16;101090.25;5033659;28;20045;-75
2022/07/02 02:05:04;;;;;;;3.15;1.90;;;;;;;26.74;42.17;101093.81;5033685;28;20037;-75
2022/07/02 02:07:32;;;;;;;4.55;2.33;;;;;;;26.74;42.25;101094.69;5033315;28;20500;-75
2022/07/02 02:09:59;;;;;;;3.00;1.92;;;;;;;26.74;42.18;101089.25;5033575;28;20049;-75
2022/07/02 02:12:27;;;;;;;3.63;2.00;;;;;;;26.75;42.29;101090.09;5033098;28;20049;-75
2022/07/02 02:14:54;;;;;;;3.85;2.60;;;;;;;26.74;42.40;101091.97;5033480;28;20050;-75
2022/07/02 02:17:21;;;;;;;3.30;1.92;;;;;;;26.76;42.33;101097.22;5051138;28;20048;-75
2022/07/02 02:19:48;;;;;;;4.30;1.80;;;;;;;26.76;42.43;101102.66;5051936;28;20049;-75
2022/07/02 02:22:16;;;;;;;3.10;1.95;;;;;;;26.76;42.35;101099.94;5052316;28;20052;-75
2022/07/02 02:24:43;;;;;;;3.05;1.83;;;;;;;26.77;42.06;101098.91;5053292;28;20056;-75
2022/07/02 02:27:10;;;;;;;4.28;1.90;;;;;;;26.76;42.04;101095.34;5053100;28;20052;-75
2022/07/02 02:29:38;;;;;;;3.47;2.08;;;;;;;26.78;42.34;101108.75;5052977;28;20499;-75
2022/07/02 02:32:05;;;;;;;3.40;2.28;;;;;;;26.78;42.23;101106.91;5053044;28;20052;-75
2022/07/02 02:34:33;;;;;;;4.78;2.10;;;;;;;26.79;42.40;101105.03;5052862;28;20044;-75
2022/07/02 02:37:00;;;;;;;3.65;1.92;;;;;;;26.80;42.20;101112.16;5051972;28;20048;-75
2022/07/02 02:39:27;;;;;;;4.00;2.20;;;;;;;26.80;42.16;101106.72;5052668;28;20053;-74
2022/07/02 02:41:55;;;;;;;2.78;1.90;;;;;;;26.80;42.32;101115.69;5052644;28;20048;-75
2022/07/02 02:44:22;;;;;;;3.13;1.75;;;;;;;26.80;42.23;101109.44;5044141;28;20068;-75
2022/07/02 02:46:49;;;;;;;6.13;2.15;;;;;;;26.81;41.97;101119.25;5050505;28;20049;-74
2022/07/02 02:49:17;;;;;;;3.53;1.92;;;;;;;26.80;42.08;101118.41;5033318;28;20509;-75
2022/07/02 02:51:44;;;;;;;3.17;2.03;;;;;;;26.81;42.37;101124.69;5048510;28;20045;-75
2022/07/02 02:54:11;;;;;;;4.47;1.65;;;;;;;26.82;42.16;101120.97;5033134;28;20400;-75
2022/07/02 02:56:39;;;;;;;2.95;2.00;;;;;;;26.82;42.14;101127.25;5032603;28;20072;-75
2022/07/02 02:59:06;;;;;;;3.90;1.92;;;;;;;26.83;42.15;101133.53;5033310;28;20056;-75
2022/07/02 03:01:33;;;;;;;3.25;2.10;;;;;;;26.82;42.39;101137.28;5050898;28;20045;-76
2022/07/02 03:04:00;;;;;;;2.50;1.60;;;;;;;26.82;41.88;101135.41;5052195;28;20044;-75
2022/07/02 03:06:28;;;;;;;4.43;2.30;;;;;;;26.83;42.18;101138.97;5051046;28;20056;-75
2022/07/02 03:08:55;;;;;;;3.78;2.00;;;;;;;26.84;42.15;101143.38;5051512;28;20056;-75
2022/07/02 03:11:23;;;;;;;3.45;1.92;;;;;;;26.84;41.68;101146.09;5052474;28;20412;-75
2022/07/02 03:13:50;;;;;;;3.00;1.80;;;;;;;26.82;40.06;101154.41;5052860;28;20045;-75
2022/07/02 03:16:17;;;;;;;3.55;2.03;;;;;;;26.81;40.20;101146.44;5052615;28;20056;-75
2022/07/02 03:18:46;;;;;;;3.75;1.90;;;;;;;26.80;40.40;101158.31;5052266;28;20053;-75
2022/07/02 03:21:13;;;;;;;3.95;1.80;;;;;;;26.79;39.59;101160.19;5042741;28;20053;-75
2022/07/02 03:23:41;;;;;;;2.75;1.77;;;;;;;26.78;38.90;101171.22;5032402;28;20038;-75
2022/07/02 03:26:08;;;;;;;3.63;2.13;;;;;;;26.77;38.76;101158.66;5032041;28;20054;-75
2022/07/02 03:28:36;;;;;;;3.08;2.00;;;;;;;26.74;38.28;101156.28;5032500;28;20056;-75
2022/07/02 03:31:03;;;;;;;4.03;2.10;;;;;;;26.72;38.92;101161.06;5032288;28;20049;-75
2022/07/02 03:33:30;;;;;;;2.42;1.90;;;;;;;26.69;38.72;101162.25;5033844;28;20139;-75
2022/07/02 03:35:58;;;;;;;4.07;1.95;;;;;;;26.68;38.61;101159.72;5036004;28;20042;-75
2022/07/02 03:38:25;;;;;;;5.53;2.60;;;;;;;26.67;38.23;101166.16;5036306;28;20413;-75
2022/07/02 03:40:53;;;;;;;2.75;1.75;;;;;;;26.65;38.34;101162.75;5034869;28;20076;-75
2022/07/02 03:43:20;;;;;;;4.60;2.20;;;;;;;26.63;38.79;101163.78;5035073;28;20393;-75
2022/07/02 03:45:47;;;;;;;4.57;2.05;;;;;;;26.64;39.00;101170.06;5047215;28;20476;-75
2022/07/02 03:48:15;;;;;;;3.30;2.08;;;;;;;26.63;39.05;101168.38;5037511;28;20046;-75
2022/07/02 03:50:42;;;;;;;5.18;2.00;;;;;;;26.61;39.33;101175.81;5036013;28;20496;-75
2022/07/02 03:53:10;;;;;;;3.72;1.65;;;;;;;26.61;39.16;101178.53;5036136;28;20048;-74
2022/07/02 03:55:37;;;;;;;3.88;1.80;;;;;;;26.60;38.91;101177.69;5035716;28;20050;-74
2022/07/02 03:58:05;;;;;;;3.45;1.75;;;;;;;26.61;38.93;101183.97;5035649;28;20215;-74
2022/07/02 04:00:32;;;;;;;3.28;1.83;;;;;;;26.59;38.91;101176.00;5034817;28;20052;-75
2022/07/02 04:02:59;;;;;;;4.30;2.03;;;;;;;26.59;38.61;101176.00;5035696;28;20041;-74
2022/07/02 04:05:27;;;;;;;4.90;1.92;;;;;;;26.57;38.23;101177.19;5036088;28;20053;-75
2022/07/02 04:07:55;;;;;;;2.55;1.98;;;;;;;26.54;37.94;101183.84;5035680;28;20075;-75
2022/07/02 04:10:22;;;;;;;3.00;1.80;;;;;;;26.53;38.11;101181.25;5035881;28;20042;-75
2022/07/02 04:12:49;;;;;;;4.95;2.20;;;;;;;26.53;38.15;101184.81;5036027;28;20046;-75
2022/07/02 04:15:16;;;;;;;3.33;1.98;;;;;;;26.52;38.12;101188.56;5035572;28;20041;-75
2022/07/02 04:17:44;;;;;;;5.15;2.20;;;;;;;26.52;38.31;101188.56;5049975;28;20056;-75
2022/07/02 04:20:11;;;;;;;3.38;1.80;;;;;;;26.53;38.26;101189.41;5056033;28;20480;-75
2022/07/02 04:22:38;;;;;;;3.13;1.92;;;;;;;26.54;38.34;101188.41;5055404;28;20419;-75
2022/07/02 04:25:06;;;;;;;3.70;1.65;;;;;;;26.54;38.33;101189.25;5053557;28;20056;-75
2022/07/02 04:27:34;;;;;;;2.05;1.20;;;;;;;26.55;38.29;101187.38;5054344;28;20349;-75
2022/07/02 04:30:01;;;;;;;2.97;2.03;;;;;;;26.54;38.16;101189.25;5053907;28;20045;-75
2022/07/02 04:32:36;;;;;;;4.07;1.90;;;;;;;26.55;38.23;101190.94;5055080;28;20041;-75
2022/07/02 04:35:03;;;;;;;4.03;1.90;;;;;;;26.55;38.22;101193.66;5055389;28;20049;-75
2022/07/02 04:37:31;;;;;;;2.80;1.80;;;;;;;26.56;38.58;101194.50;5055093;28;20048;-75
2022/07/02 04:39:58;;;;;;;2.28;1.73;;;;;;;26.58;38.31;101201.47;5053941;28;20068;-75
2022/07/02 04:42:26;;;;;;;2.97;1.90;;;;;;;26.59;38.58;101200.44;5054357;28;20049;-75
2022/07/02 04:44:53;;;;;;;2.88;1.73;;;;;;;26.59;38.18;101202.31;5053845;28;20052;-75
2022/07/02 04:47:20;;;;;;;2.67;2.03;;;;;;;26.59;38.22;101202.31;5053020;28;20064;-75
2022/07/02 04:49:47;;;;;;;5.72;1.80;;;;;;;26.59;38.20;101205.88;5053615;28;20049;-75
2022/07/02 04:52:15;;;;;;;3.97;2.10;;;;;;;26.58;38.26;101206.91;5054717;28;20045;-75
2022/07/02 04:54:42;;;;;;;3.60;1.73;;;;;;;26.60;38.04;101212.16;5055076;28;20511;-75
2022/07/02 04:57:10;;;;;;;3.85;1.90;;;;;;;26.59;38.25;101208.59;5054456;28;20051;-75
2022/07/02 04:59:37;;;;;;;3.00;2.13;;;;;;;26.61;38.36;101211.97;5053051;28;20056;-75
2022/07/02 05:02:05;;;;;;;4.63;2.10;;;;;;;26.61;38.60;101211.13;5054776;28;20093;-75
2022/07/02 05:04:32;;;;;;;3.13;1.73;;;;;;;26.62;38.44;101210.13;5054647;28;20380;-75
2022/07/02 05:07:00;;;;;;;3.28;1.98;;;;;;;26.62;38.69;101215.56;5036491;28;20049;-75
2022/07/02 05:09:27;;;;;;;5.18;2.25;;;;;;;26.62;38.83;101224.56;5054822;28;20048;-75
2022/07/02 05:11:55;;;;;;;3.78;2.10;;;;;;;26.63;38.79;101228.97;5054401;28;20049;-75
2022/07/02 05:14:22;;;;;;;5.22;2.40;;;;;;;26.64;39.13;101221.66;5036810;28;20408;-75
2022/07/02 05:16:50;;;;;;;4.65;2.17;;;;;;;26.65;39.28;101222.50;5054484;28;20044;-75
2022/07/02 05:19:17;;;;;;;3.53;1.75;;;;;;;26.66;39.48;101230.50;5053017;28;20053;-75
2022/07/02 05:21:44;;;;;;;3.72;1.88;;;;;;;26.66;39.56;101232.34;5054346;28;20041;-75
2022/07/02 05:24:12;;;;;;;2.92;1.90;;;;;;;26.65;39.56;101236.09;5053702;28;20045;-75
2022/07/02 05:26:39;;;;;;;4.22;2.00;;;;;;;26.65;39.68;101236.09;5052967;28;20107;-75
2022/07/02 05:29:06;;;;;;;2.45;1.77;;;;;;;26.63;39.38;101239.81;5054124;28;20054;-75
2022/07/02 05:31:34;;;;;;;2.25;1.92;;;;;;;26.62;39.59;101249.00;5057994;28;20073;-73
2022/07/02 05:34:01;;;;;;;3.92;2.20;;;;;;;26.62;39.61;101242.72;5054473;28;20377;-75
2022/07/02 05:36:28;;;;;;;2.65;2.00;;;;;;;26.62;39.71;101256.31;5052814;28;20404;-74
2022/07/02 05:38:56;;;;;;;4.65;2.20;;;;;;;26.62;39.90;101250.88;5055224;28;20060;-75
2022/07/02 05:41:23;;;;;;;4.88;2.30;;;;;;;26.61;40.26;101257.28;5055964;28;20408;-75
2022/07/02 05:43:51;;;;;;;4.20;2.33;;;;;;;26.59;40.07;101257.47;5054161;28;20045;-75
2022/07/02 05:46:18;;;;;;;4.57;2.53;;;;;;;26.60;40.36;101255.59;5053858;28;20045;-76
2022/07/02 05:48:45;;;;;;;2.97;1.90;;;;;;;26.59;40.36;101260.19;5032625;28;20045;-76
2022/07/02 05:51:13;;;;;;;3.45;2.13;;;;;;;26.58;40.51;101263.94;5034189;28;20049;-76
2022/07/02 05:53:40;;;;;;;4.82;2.20;;;;;;;26.58;40.82;101266.66;5032454;28;20049;-76
2022/07/02 05:56:08;;;;;;;5.78;2.47;;;;;;;26.57;40.58;101255.94;5033284;28;20138;-76
2022/07/02 05:58:35;;;;;;;4.78;2.10;;;;;;;26.56;40.86;101256.97;5034148;28;20389;-76
2022/07/02 06:01:02;;;;;;;5.05;2.15;;;;;;;26.55;41.03;101258.84;5033745;28;20052;-76
2022/07/02 06:03:30;;;;;;;4.05;2.17;;;;;;;26.55;41.20;101260.72;5034002;28;20484;-76
2022/07/02 06:08:43;;;;;;;4.63;2.40;;;;;;;26.54;42.36;101269.88;5034299;28;20477;-76
2022/07/02 06:11:11;;;;;;;6.13;2.72;;;;;;;26.54;42.02;101278.88;5016035;28;20064;-75
2022/07/02 06:13:38;;;;;;;3.50;2.38;;;;;;;26.54;42.33;101267.16;5031819;28;20357;-76
2022/07/02 06:16:06;;;;;;;3.90;2.45;;;;;;;26.52;42.39;101280.03;5033177;28;20052;-75
2022/07/02 06:18:34;;;;;;;3.40;2.40;;;;;;;26.52;42.57;101278.16;5051555;28;20044;-76
2022/07/02 06:21:01;;;;;;;4.47;2.33;;;;;;;26.52;42.51;101280.88;5053374;28;20040;-76
2022/07/02 06:23:28;;;;;;;5.30;2.75;;;;;;;26.52;42.43;101277.31;5052920;28;20484;-75
2022/07/02 06:25:56;;;;;;;6.57;2.78;;;;;;;26.51;42.09;101276.47;5053159;28;20053;-76
2022/07/02 06:28:23;;;;;;;4.63;2.80;;;;;;;26.50;42.41;101277.50;5053131;28;20037;-76
2022/07/02 06:30:51;;;;;;;5.45;2.90;;;;;;;26.48;42.34;101282.25;5053174;28;20045;-76
2022/07/02 06:33:18;;;;;;;4.05;2.60;;;;;;;26.47;42.36;101285.97;5053135;28;20053;-76
2022/07/02 06:35:46;;;;;;;4.57;2.83;;;;;;;26.47;42.36;101283.28;5051667;28;20488;-75
2022/07/02 06:38:13;;;;;;;6.05;2.85;;;;;;;26.48;42.79;101295.81;5052610;28;20045;-76
2022/07/02 06:40:41;;;;;;;3.65;2.38;;;;;;;26.48;42.82;101293.09;5051371;28;20049;-75
2022/07/02 06:43:08;;;;;;;5.40;2.65;;;;;;;26.49;42.75;101305.66;5052773;28;20045;-76
2022/07/02 06:45:35;;;;;;;5.75;2.88;;;;;;;26.49;42.78;101294.78;5052888;28;20488;-76
2022/07/02 06:48:03;;;;;;;3.80;2.40;;;;;;;26.51;42.72;101302.78;5046478;28;20045;-76
2022/07/02 06:50:30;;;;;;;3.50;2.40;;;;;;;26.51;42.92;101300.06;5032104;28;20041;-75
2022/07/02 06:53:02;;;;;;;3.90;2.60;;;;;;;26.52;43.14;101307.19;5032915;28;20049;-76
2022/07/02 06:55:29;;;;;;;5.57;2.38;;;;;;;26.55;42.96;101306.88;5033309;28;20049;-76
2022/07/02 06:57:56;;;;;;;5.85;2.30;;;;;;;26.56;43.42;101305.84;5032921;28;20056;-76
2022/07/02 07:00:23;;;;;;;5.45;3.20;;;;;;;26.57;43.24;101313.81;5035647;28;20048;-76
2022/07/02 07:02:51;;;;;;;3.38;2.55;;;;;;;26.56;43.56;101314.84;5052560;28;20052;-76
2022/07/02 07:05:22;;;;;;;4.13;3.00;;;;;;;26.57;43.65;101307.53;5052724;28;20047;-76
2022/07/02 07:07:50;;;;;;;6.75;2.92;;;;;;;26.58;43.71;101312.81;5054877;28;20052;-75
2022/07/02 07:10:17;;;;;;;6.75;3.22;;;;;;;26.57;43.64;101316.53;5056722;28;20488;-75
2022/07/02 07:12:44;;;;;;;7.38;2.88;;;;;;;26.57;44.01;101319.25;5055301;28;20056;-75
2022/07/02 07:15:12;;;;;;;6.47;2.90;;;;;;;26.58;44.18;101315.53;5056751;28;20041;-75
2022/07/02 07:17:39;;;;;;;5.28;3.25;;;;;;;26.59;44.04;101319.09;5056478;28;20045;-75
2022/07/02 07:20:16;;;;;;;8.70;3.75;;;;;;;26.59;44.24;101322.66;5056296;28;20041;-75
2022/07/02 07:22:44;;;;;;;4.70;3.33;;;;;;;26.61;44.57;101330.63;5056607;28;20052;-75
2022/07/02 07:25:12;;;;;;;4.85;2.88;;;;;;;26.62;44.52;101333.19;5054693;28;20424;-75
2022/07/02 07:27:39;;;;;;;7.20;3.17;;;;;;;26.65;44.68;101342.00;5056249;28;20055;-75
2022/07/02 07:30:07;;;;;;;5.22;3.58;;;;;;;26.66;45.13;101344.56;5056637;28;20056;-75
2022/07/02 07:32:34;;;;;;;5.50;3.20;;;;;;;26.67;45.16;101337.25;5056360;28;20049;-75
2022/07/02 07:35:01;;;;;;;7.78;3.92;;;;;;;26.68;45.59;101338.97;5056811;28;20048;-75
2022/07/02 07:37:29;;;;;;;8.75;3.90;;;;;;;26.69;45.57;101337.94;5054880;28;20048;-75
2022/07/02 07:39:56;;;;;;;6.55;3.95;;;;;;;26.71;45.66;101344.06;5056015;28;20056;-75
2022/07/02 07:42:24;;;;;;;4.95;3.60;;;;;;;26.72;45.63;101343.88;5054667;28;20041;-75
2022/07/02 07:44:51;;;;;;;7.22;3.35;;;;;;;26.73;45.44;101337.41;5054966;28;20049;-75
2022/07/02 07:47:18;;;;;;;8.45;4.05;;;;;;;26.76;45.98;101344.41;5055899;28;20045;-76
2022/07/02 07:49:46;;;;;;;6.35;4.45;;;;;;;26.76;46.29;101345.25;5043387;28;20042;-75
2022/07/02 07:52:13;;;;;;;6.53;4.38;;;;;;;26.77;46.34;101340.66;5035681;28;20397;-75
2022/07/02 07:54:40;;;;;;;7.25;4.05;;;;;;;26.78;46.77;101345.94;5035808;28;20045;-75
2022/07/02 07:57:08;;;;;;;6.60;4.40;;;;;;;26.79;46.86;101347.63;5035792;28;20046;-75
2022/07/02 07:59:35;;;;;;;8.15;4.20;;;;;;;26.81;46.31;101344.72;5035790;28;20041;-75
2022/07/02 08:02:03;;;;;;;8.25;4.22;;;;;;;26.81;47.07;101337.44;5036122;28;20044;-76
2022/07/02 08:04:31;;;;;;;8.50;3.95;;;;;;;26.83;46.82;101345.44;5034752;28;20041;-75
2022/07/02 08:06:58;;;;;;;6.72;4.88;;;;;;;26.84;47.27;101334.38;5035589;28;20060;-75
2022/07/02 08:09:25;;;;;;;7.15;4.20;;;;;;;26.86;47.29;101342.38;5035975;28;20046;-76
2022/07/02 08:11:52;;;;;;;9.65;5.00;;;;;;;26.87;47.58;101339.47;5035934;28;20527;-77
2022/07/02 08:14:20;;;;;;;9.57;4.47;;;;;;;26.88;47.27;101338.44;5035450;28;20049;-76
2022/07/02 08:16:47;;;;;;;6.97;4.30;;;;;;;26.90;47.00;101343.75;5035560;28;20408;-76
2022/07/02 08:19:14;;;;;;;6.75;4.38;;;;;;;26.91;47.15;101337.28;5053922;28;20049;-76
2022/07/02 08:21:42;;;;;;;4.90;3.70;;;;;;;26.93;46.91;101339.81;5055024;28;20396;-76
2022/07/02 08:24:09;;;;;;;5.90;4.05;;;;;;;26.93;47.45;101334.38;5055097;28;20049;-76
2022/07/02 08:26:37;;;;;;;9.90;5.20;;;;;;;26.95;47.81;101338.63;5055556;28;20040;-76
2022/07/02 08:29:04;;;;;;;6.18;4.90;;;;;;;26.97;47.55;101339.28;5054266;28;20056;-76
2022/07/02 08:31:31;;;;;;;7.15;4.75;;;;;;;26.98;47.22;101338.31;5055699;28;20056;-76
2022/07/02 08:33:59;;;;;;;5.78;4.68;;;;;;;26.99;47.66;101337.28;5055569;28;20499;-76
2022/07/02 08:36:26;;;;;;;8.13;5.18;;;;;;;27.00;47.62;101338.97;5054065;28;20480;-76
2022/07/02 08:38:54;;;;;;;7.80;4.82;;;;;;;27.02;47.55;101338.78;5055764;28;20045;-77
2022/07/02 08:41:22;;;;;;;10.35;5.25;;;;;;;27.05;47.54;101336.56;5055212;28;20048;-77
2022/07/02 08:43:52;;;;;;;9.77;5.13;;;;;;;27.06;47.45;101327.44;5055369;28;20056;-77
2022/07/02 08:46:20;;;;;;;7.85;4.55;;;;;;;27.09;47.27;101331.66;5055990;28;20052;-77
2022/07/02 08:48:50;;;;;;;8.55;5.53;;;;;;;27.10;47.26;101325.22;5054908;28;20050;-77
2022/07/02 08:51:20;;;;;;;6.15;4.85;;;;;;;27.11;47.62;101327.78;5037975;28;20397;-76
2022/07/02 08:53:48;;;;;;;10.18;5.10;;;;;;;27.13;47.84;101329.47;5035744;28;20053;-77
2022/07/02 08:56:16;;;;;;;7.85;5.40;;;;;;;27.13;47.87;101327.59;5034390;28;20041;-77
2022/07/02 08:58:45;;;;;;;10.52;5.35;;;;;;;27.14;48.14;101328.44;5035651;28;20045;-84
2022/07/02 09:01:13;;;;;;;11.65;4.57;;;;;;;27.15;47.76;101325.56;5040381;28;20049;-77
2022/07/02 09:03:41;;;;;;;5.90;4.70;;;;;;;27.15;47.76;101333.72;5053883;28;20057;-77
2022/07/02 09:06:09;;;;;;;7.35;4.50;;;;;;;27.16;47.49;101334.56;5055029;28;20503;-77
2022/07/02 09:08:37;;;;;;;7.13;4.78;;;;;;;27.18;47.52;101327.09;5055025;28;20045;-77
2022/07/02 09:11:06;;;;;;;5.63;4.43;;;;;;;27.18;47.59;101333.38;5054527;28;20060;-77
2022/07/02 09:13:34;;;;;;;9.20;4.32;;;;;;;27.19;47.91;101339.69;5054481;28;20049;-77
2022/07/02 09:16:01;;;;;;;8.50;4.68;;;;;;;27.20;48.59;101338.66;5053587;28;20045;-77
2022/07/02 09:18:29;;;;;;;6.85;4.40;;;;;;;27.21;48.34;101332.19;5054285;28;20049;-76
2022/07/02 09:20:56;;;;;;;6.30;4.50;;;;;;;27.22;48.46;101336.59;5054304;28;20044;-75
2022/07/02 09:23:24;;;;;;;10.07;5.07;;;;;;;27.23;48.47;101346.47;5054797;28;20394;-75
2022/07/02 09:25:51;;;;;;;8.07;4.78;;;;;;;27.24;48.60;101343.56;5053940;28;20412;-76
2022/07/02 09:28:19;;;;;;;8.07;4.50;;;;;;;27.26;48.83;101340.66;5053901;28;20049;-78
2022/07/02 09:30:47;;;;;;;7.70;5.57;;;;;;;27.27;49.76;101342.38;5053941;28;20497;-78
2022/07/02 09:33:35;;;;;;;8.55;5.55;;;;;;;27.29;50.46;101345.75;5053299;28;20059;-78
2022/07/02 09:36:12;;;;;;;8.43;5.13;;;;;;;27.32;50.34;101348.16;5054419;28;20071;-75
2022/07/02 09:38:44;;;;;;;8.57;4.78;;;;;;;27.33;50.41;101339.81;5052698;28;20408;-78
2022/07/02 09:41:14;;;;;;;9.85;4.85;;;;;;;27.35;50.50;101336.94;5053940;28;20056;-77
2022/07/02 09:43:41;;;;;;;12.07;5.68;;;;;;;27.35;51.04;101332.34;5052748;28;20093;-77
2022/07/02 09:46:19;;;;;;;10.45;5.32;;;;;;;27.38;50.98;101333.00;5053624;28;20056;-78
2022/07/02 09:48:47;;;;;;;7.55;5.25;;;;;;;27.38;49.94;101333.84;5053786;28;20052;-77
2022/07/02 09:51:16;;;;;;;8.55;5.57;;;;;;;27.38;50.57;101324.84;5045241;28;20417;-78
2022/07/02 09:53:54;;;;;;;11.35;5.90;;;;;;;27.40;50.92;101337.25;5033057;28;20057;-77
2022/07/02 09:56:23;;;;;;;12.27;5.75;;;;;;;27.42;50.60;101334.34;5032660;28;20072;-76
2022/07/02 09:58:51;;;;;;;10.30;5.68;;;;;;;27.41;50.90;101328.06;5033541;28;20061;-77
2022/07/02 10:01:20;;;;;;;10.82;6.90;;;;;;;27.43;50.95;101336.03;5033537;28;20049;-78
2022/07/02 10:03:52;;;;;;;12.50;7.25;;;;;;;27.44;52.15;101332.31;5034194;28;20053;-77
2022/07/02 10:06:20;;;;;;;15.07;8.57;;;;;;;27.47;52.25;101340.13;5033949;28;20053;-78
2022/07/02 10:08:55;;;;;;;14.57;8.07;;;;;;;27.47;51.91;101338.25;5033656;28;20057;-79
2022/07/02 10:11:23;;;;;;;13.90;8.13;;;;;;;27.48;51.43;101344.56;5033786;28;20492;-78
2022/07/02 10:13:53;;;;;;;9.05;6.22;;;;;;;27.49;51.71;101347.09;5033610;28;20068;-78
2022/07/02 10:16:22;;;;;;;9.32;6.45;;;;;;;27.53;51.31;101343.00;5033833;28;20041;-78
2022/07/02 10:18:51;;;;;;;9.43;5.80;;;;;;;27.56;51.13;101344.53;5047606;28;20052;-78
2022/07/02 10:21:20;;;;;;;9.00;6.28;;;;;;;27.58;50.83;101345.19;5043027;28;20056;-78
2022/07/02 10:23:48;;;;;;;10.25;6.38;;;;;;;27.57;50.75;101341.63;5033061;28;20053;-78
2022/07/02 10:26:15;;;;;;;11.05;5.95;;;;;;;27.58;50.61;101329.72;5033054;28;20053;-79
2022/07/02 10:28:43;;;;;;;11.75;6.40;;;;;;;27.60;50.52;101338.56;5033348;28;20056;-80
2022/07/02 10:31:20;;;;;;;9.88;5.75;;;;;;;27.61;50.96;101339.41;5032470;28;20173;-80
2022/07/02 10:34:17;;;;;;;13.00;6.45;;;;;;;27.67;51.11;101338.72;5034612;28;20042;-80
2022/07/02 10:36:45;;;;;;;8.73;5.78;;;;;;;27.73;50.44;101332.59;5032809;28;20053;-80
2022/07/02 10:39:16;;;;;;;9.48;6.30;;;;;;;27.75;50.60;101329.69;5032342;28;20567;-80
2022/07/02 10:41:43;;;;;;;9.68;6.45;;;;;;;27.75;50.28;101324.25;5031844;28;20065;-80
2022/07/02 10:44:10;;;;;;;11.18;5.50;;;;;;;27.75;50.77;101326.97;5015626;28;20057;-83
2022/07/02 10:46:39;;;;;;;9.77;6.05;;;;;;;27.77;51.58;101330.38;5032068;28;20049;-80
2022/07/02 10:49:06;;;;;;;11.40;6.63;;;;;;;27.80;51.36;101322.72;5016146;28;20049;-80
2022/07/02 10:51:35;;;;;;;12.35;6.28;;;;;;;27.87;51.46;101327.44;5032192;28;20428;-81
2022/07/02 10:54:07;;;;;;;9.52;6.53;;;;;;;27.88;51.17;101319.13;5043270;28;20060;-80
2022/07/02 10:56:46;;;;;;;10.15;5.97;;;;;;;27.89;51.21;101318.09;5035217;28;20048;-80
2022/07/02 10:59:27;;;;;;;13.50;6.80;;;;;;;27.87;51.40;101309.22;5051113;28;20049;-80
2022/07/02 11:02:05;;;;;;;8.57;5.53;;;;;;;27.87;51.00;101306.50;5051019;28;20563;-81
2022/07/02 11:04:34;;;;;;;10.88;6.00;;;;;;;27.88;51.27;101307.38;5051574;28;20045;-81
2022/07/02 11:07:06;;;;;;;11.27;6.28;;;;;;;27.87;51.53;101302.94;5034634;28;20049;-79
2022/07/02 11:09:46;;;;;;;;;;;;;;;27.87;51.84;101298.34;5044937;28;20049;-79
2022/07/02 11:12:21;;;;;;;8.20;6.57;;;;;;;27.87;52.44;101303.78;5024000;28;20292;-79
2022/07/02 11:14:54;;;;;;;10.85;6.05;;;;;;;27.91;52.51;101301.56;5033036;28;20116;-79
2022/07/02 11:17:48;;;;;;;10.40;6.25;;;;;;;27.92;51.99;101301.41;5032843;28;20060;-79
2022/07/02 11:20:22;;;;;;;11.43;6.90;;;;;;;27.93;52.30;101300.38;5033870;28;20049;-79
2022/07/02 11:22:49;;;;;;;12.25;6.70;;;;;;;27.93;52.30;101292.22;5052873;28;20045;-78
2022/07/02 11:25:17;;;;;;;9.65;7.13;;;;;;;27.96;52.34;101293.75;5052503;28;20049;-78
2022/07/02 11:27:55;;;;;;;9.05;6.50;;;;;;;28.00;50.51;101290.47;5053654;28;20037;-78
2022/07/02 11:30:26;;;;;;;8.90;6.40;;;;;;;28.02;51.18;101280.25;5053086;28;20419;-79
2022/07/02 11:32:53;;;;;;;11.98;6.05;;;;;;;28.07;51.29;101287.88;5052295;28;20488;-78
2022/07/02 11:35:20;;;;;;;12.30;6.35;;;;;;;28.16;51.18;101284.09;5052110;28;20049;-78